Time;durP1;ratioP1;P1;durP2;ratioP2;P2;SDS_P1;SDS_P2;PMS_P1;PMS_P2;Temp;Humidity;BMP_temperature;BMP_pressure;BME280_temperature;BME280_humidity;BME280_pressure;Samples;Min_cycle;Max_cycle;Signal;HPM_P1;HPM_P2
2023/09/06 00:01:17;;;;;;;;;12.00;11.00;;;;;17.86;100.00;99545.94;6241026;28;96456;-67
2023/09/06 00:04:21;;;;;;;;;15.40;14.60;;;;;17.85;100.00;99552.47;6253358;27;96539;-66
2023/09/06 00:07:24;;;;;;;;;13.75;12.75;;;;;17.79;100.00;99550.75;6265763;27;96357;-66
2023/09/06 00:10:27;;;;;;;;;14.00;14.00;;;;;17.81;100.00;99550.50;6263882;27;98543;-67
2023/09/06 00:13:33;;;;;;;;;13.80;12.80;;;;;17.75;100.00;99544.16;6263901;27;98423;-66
2023/09/06 00:16:36;;;;;;;;;13.00;12.20;;;;;17.81;100.00;99548.63;6251926;27;96337;-66
2023/09/06 00:19:39;;;;;;;;;14.00;13.00;;;;;17.80;100.00;99541.50;6238074;28;96941;-66
2023/09/06 00:22:42;;;;;;;;;14.60;12.60;;;;;17.78;100.00;99542.84;6238435;27;96472;-66
2023/09/06 00:25:45;;;;;;;;;13.50;13.00;;;;;17.74;100.00;99543.34;6238416;28;96726;-66
2023/09/06 00:28:50;;;;;;;;;13.00;11.00;;;;;17.74;100.00;99551.53;6238131;28;97158;-66
2023/09/06 00:31:53;;;;;;;;;15.00;13.33;;;;;17.74;100.00;99554.25;6238845;28;96360;-66
2023/09/06 00:34:56;;;;;;;;;18.50;17.00;;;;;17.73;100.00;99560.81;6237909;27;96539;-66
2023/09/06 00:38:04;;;;;;;;;15.00;14.00;;;;;17.72;100.00;99555.59;6238906;28;97020;-67
2023/09/06 00:41:07;;;;;;;;;15.00;13.60;;;;;17.64;100.00;99548.66;6239118;28;96629;-66
2023/09/06 00:44:12;;;;;;;;;19.00;17.00;;;;;17.67;100.00;99544.59;6246459;27;96778;-67
2023/09/06 00:47:15;;;;;;;;;22.20;21.20;;;;;17.65;100.00;99552.19;6246805;27;96788;-66
2023/09/06 00:50:19;;;;;;;;;20.40;17.80;;;;;17.66;100.00;99556.59;6264173;27;97120;-67
2023/09/06 00:53:25;;;;;;;;;22.60;21.60;;;;;17.68;100.00;99551.72;6263167;27;96400;-67
2023/09/06 00:56:28;;;;;;;;;24.40;23.40;;;;;17.59;100.00;99542.31;6251561;27;96330;-67
2023/09/06 00:59:34;;;;;;;;;34.00;30.00;;;;;17.74;100.00;99561.59;6238467;28;96403;-67
2023/09/06 01:02:38;;;;;;;;;31.80;28.40;;;;;17.78;100.00;99557.31;6238879;27;96654;-67
2023/09/06 01:05:47;;;;;;;;;26.25;24.00;;;;;17.78;100.00;99557.31;6237325;27;98560;-66
2023/09/06 01:08:56;;;;;;;;;25.20;23.00;;;;;17.68;100.00;99554.44;6239031;28;96606;-67
2023/09/06 01:12:00;;;;;;;;;24.80;23.00;;;;;17.69;100.00;99558.84;6237549;27;97245;-66
2023/09/06 01:15:05;;;;;;;;;26.40;23.40;;;;;17.65;100.00;99557.66;6238893;28;96338;-66
2023/09/06 01:18:09;;;;;;;;;23.40;22.00;;;;;17.63;100.00;99555.19;6239369;28;97002;-67
2023/09/06 01:21:16;;;;;;;;;20.33;18.33;;;;;17.63;100.00;99560.66;6238503;27;96843;-66
2023/09/06 01:24:21;;;;;;;;;26.60;24.00;;;;;17.62;100.00;99550.81;6239073;28;96507;-66
2023/09/06 01:27:25;;;;;;;;;25.00;23.00;;;;;17.63;100.00;99554.38;6238121;28;97153;-66
2023/09/06 01:30:29;;;;;;;;;23.60;22.00;;;;;17.59;100.00;99558.69;6238618;27;96479;-66
2023/09/06 01:33:32;;;;;;;;;24.00;21.00;;;;;17.51;100.00;99557.16;6238665;27;96294;-66
2023/09/06 01:36:36;;;;;;;;;27.00;25.00;;;;;17.49;100.00;99558.50;6238761;28;96495;-66
2023/09/06 01:39:40;;;;;;;;;25.00;21.00;;;;;17.46;100.00;99561.72;6238739;27;96327;-67
2023/09/06 01:42:44;;;;;;;;;26.00;25.00;;;;;17.45;100.00;99554.59;6220960;28;96719;-67
2023/09/06 01:45:51;;;;;;;;;24.80;22.00;;;;;17.42;100.00;99552.38;6238465;28;97203;-66
2023/09/06 01:48:59;;;;;;;;;29.60;26.60;;;;;17.41;100.00;99548.00;6237652;28;98218;-66
2023/09/06 01:52:05;;;;;;;;;25.80;24.80;;;;;17.41;100.00;99548.00;6250167;27;96307;-67
2023/09/06 01:55:10;;;;;;;;;20.80;20.80;;;;;17.37;100.00;99549.59;6262808;27;96481;-66
2023/09/06 01:58:13;;;;;;;;;20.60;19.40;;;;;17.32;100.00;99544.88;6268406;27;97014;-67
2023/09/06 02:01:18;;;;;;;;;22.20;21.40;;;;;17.30;100.00;99547.84;6260515;27;96854;-66
2023/09/06 02:04:22;;;;;;;;;24.00;21.00;;;;;17.28;100.00;99541.84;6250068;27;96880;-66
2023/09/06 02:07:26;;;;;;;;;22.60;21.20;;;;;17.26;100.00;99545.88;6270104;27;97586;-67
2023/09/06 02:10:31;;;;;;;;;25.75;24.25;;;;;17.19;100.00;99537.88;6270470;27;96303;-66
2023/09/06 02:13:34;;;;;;;;;23.00;22.00;;;;;17.16;100.00;99543.81;6286780;27;96668;-66
2023/09/06 02:16:39;;;;;;;;;23.20;21.20;;;;;17.11;100.00;99549.19;6259058;27;96817;-66
2023/09/06 02:19:43;;;;;;;;;21.60;20.00;;;;;17.08;100.00;99536.06;6259369;27;96441;-66
2023/09/06 02:22:48;;;;;;;;;23.00;22.00;;;;;17.08;100.00;99538.78;6242434;27;96915;-67
2023/09/06 02:25:52;;;;;;;;;23.00;21.00;;;;;17.08;100.00;99536.06;6236101;27;96615;-66
2023/09/06 02:28:56;;;;;;;;;21.00;19.80;;;;;17.05;100.00;99522.94;6284809;27;97242;-66
2023/09/06 02:32:00;;;;;;;;;21.00;20.00;;;;;17.03;100.00;99526.97;6263908;27;96700;-71
2023/09/06 02:35:06;;;;;;;;;22.00;21.00;;;;;17.03;100.00;99524.25;6249306;27;97545;-66
2023/09/06 02:38:10;;;;;;;;;24.00;22.00;;;;;17.00;100.00;99531.03;6269545;27;98250;-66
2023/09/06 02:41:16;;;;;;;;;21.40;20.40;;;;;17.01;100.00;99529.94;6269585;27;96465;-66
2023/09/06 02:44:20;;;;;;;;;22.00;21.80;;;;;17.02;100.00;99534.31;6252356;27;96779;-66
2023/09/06 02:47:28;;;;;;;;;25.60;21.40;;;;;17.00;100.00;99535.66;6252134;27;96908;-66
2023/09/06 02:50:34;;;;;;;;;23.80;21.20;;;;;16.94;100.00;99537.47;6248541;27;96367;-66
2023/09/06 02:53:44;;;;;;;;;20.40;18.40;;;;;16.91;100.00;99523.53;6269398;27;97460;-66
2023/09/06 02:56:49;;;;;;;;;19.00;18.50;;;;;16.82;100.00;99528.53;6269674;27;96379;-66
2023/09/06 02:59:53;;;;;;;;;20.25;19.00;;;;;16.79;100.00;99537.22;6267245;27;96370;-67
2023/09/06 03:02:59;;;;;;;;;17.25;15.25;;;;;16.77;100.00;99537.44;6258894;27;96812;-67
2023/09/06 03:06:04;;;;;;;;;18.00;17.00;;;;;16.73;100.00;99541.75;6256103;27;97621;-66
2023/09/06 03:09:09;;;;;;;;;19.40;17.00;;;;;16.70;100.00;99541.41;6257392;27;96933;-66
2023/09/06 03:12:16;;;;;;;;;16.80;15.80;;;;;16.62;100.00;99548.06;6264282;27;96343;-66
2023/09/06 03:15:28;;;;;;;;;16.80;16.00;;;;;16.52;100.00;99542.41;6243174;27;96267;-66
2023/09/06 03:18:39;;;;;;;;;16.80;15.80;;;;;16.50;100.00;99541.00;6249104;27;96530;-66
2023/09/06 03:21:42;;;;;;;;;16.20;16.00;;;;;16.45;100.00;99537.13;6266434;27;96390;-67
2023/09/06 03:24:46;;;;;;;;;16.00;15.00;;;;;16.37;100.00;99529.34;6266382;27;96763;-66
2023/09/06 03:27:50;;;;;;;;;13.40;13.00;;;;;16.36;100.00;99532.31;6256890;27;96748;-66
2023/09/06 03:30:54;;;;;;;;;15.80;14.00;;;;;16.33;100.00;99540.97;6259428;27;96822;-66
2023/09/06 03:33:57;;;;;;;;;13.00;11.00;;;;;16.25;100.00;99534.03;6265225;27;96359;-66
2023/09/06 03:37:00;;;;;;;;;15.00;14.00;;;;;16.22;100.00;99539.13;6233662;27;96705;-66
2023/09/06 03:40:12;;;;;;;;;13.00;12.00;;;;;16.15;100.00;99539.25;6266520;27;96954;-66
2023/09/06 03:43:19;;;;;;;;;13.67;12.67;;;;;16.13;100.00;99541.38;6257509;27;97276;-66
2023/09/06 03:46:25;;;;;;;;;12.40;11.00;;;;;16.08;100.00;99544.00;6285588;27;97484;-66
2023/09/06 03:49:28;;;;;;;;;12.40;11.40;;;;;16.07;100.00;99539.66;6242301;27;98572;-66
2023/09/06 03:52:33;;;;;;;;;13.20;12.20;;;;;16.07;100.00;99544.25;6250898;27;96840;-66
2023/09/06 03:55:38;;;;;;;;;10.75;10.75;;;;;16.10;100.00;99546.50;6260212;27;96564;-66
2023/09/06 03:58:42;;;;;;;;;12.00;12.00;;;;;16.08;100.00;99549.44;6271638;27;96734;-66
2023/09/06 04:01:47;;;;;;;;;13.00;12.00;;;;;16.00;100.00;99545.22;6255413;27;96902;-66
2023/09/06 04:04:52;;;;;;;;;10.00;10.00;;;;;16.02;100.00;99550.44;6270943;27;96771;-66
2023/09/06 04:07:57;;;;;;;;;13.80;12.20;;;;;16.03;100.00;99542.00;6257781;27;98166;-66
2023/09/06 04:11:02;;;;;;;;;14.20;13.00;;;;;16.05;100.00;99544.50;6262585;27;96704;-66
2023/09/06 04:14:07;;;;;;;;;15.00;14.00;;;;;16.08;100.00;99546.72;6242354;27;98473;-66
2023/09/06 04:17:12;;;;;;;;;15.40;14.40;;;;;16.07;100.00;99538.81;6272164;27;96579;-65
2023/09/06 04:20:19;;;;;;;;;13.25;13.25;;;;;16.08;100.00;99537.75;6236379;27;98370;-65
2023/09/06 04:23:22;;;;;;;;;11.60;10.60;;;;;16.15;100.00;99546.59;6269274;27;96435;-66
2023/09/06 04:26:30;;;;;;;;;12.40;11.40;;;;;16.21;100.00;99543.75;6256682;27;96717;-66
2023/09/06 04:29:35;;;;;;;;;15.40;13.00;;;;;16.27;100.00;99550.91;6262770;27;97406;-66
2023/09/06 04:32:38;;;;;;;;;14.00;13.50;;;;;16.34;100.00;99557.06;6285316;27;96496;-66
2023/09/06 04:35:45;;;;;;;;;18.00;17.00;;;;;16.39;100.00;99556.31;6250202;27;96956;-66
2023/09/06 04:38:49;;;;;;;;;14.00;13.33;;;;;16.49;100.00;99572.84;6276105;27;96411;-66
2023/09/06 04:41:52;;;;;;;;;14.60;12.60;;;;;16.57;100.00;99577.06;6251773;27;98341;-66
2023/09/06 04:44:57;;;;;;;;;14.33;13.33;;;;;16.64;100.00;99575.88;6279445;27;96477;-66
2023/09/06 04:48:02;;;;;;;;;15.00;14.40;;;;;16.72;100.00;99577.38;6271670;27;96925;-66
2023/09/06 04:51:06;;;;;;;;;14.60;13.60;;;;;16.85;100.00;99580.63;6265971;27;96830;-66
2023/09/06 04:54:09;;;;;;;;;23.25;22.25;;;;;16.98;100.00;99584.09;6269718;27;96441;-66
2023/09/06 04:57:16;;;;;;;;;20.40;20.00;;;;;17.10;100.00;99573.97;6268485;27;96485;-65
2023/09/06 05:00:24;;;;;;;;;23.80;21.00;;;;;17.18;100.00;99574.38;6265355;27;97129;-65
2023/09/06 05:03:27;;;;;;;;;25.00;22.40;;;;;17.35;100.00;99565.38;6284348;27;96802;-66
2023/09/06 05:06:31;;;;;;;;;27.80;24.00;;;;;17.47;100.00;99575.09;6282457;27;96563;-66
2023/09/06 05:09:35;;;;;;;;;26.80;23.40;;;;;17.60;100.00;99577.50;6236260;27;97783;-66
2023/09/06 05:12:38;;;;;;;;;26.00;23.00;;;;;17.78;100.00;99578.31;6263656;27;96407;-66
2023/09/06 05:15:44;;;;;;;;;24.50;22.00;;;;;17.93;100.00;99587.53;6249333;27;98828;-66
2023/09/06 05:18:48;;;;;;;;;26.00;24.00;;;;;18.07;100.00;99587.97;6260825;27;96645;-66
2023/09/06 05:21:56;;;;;;;;;24.00;23.00;;;;;18.20;100.00;99587.59;6259171;27;96806;-66
2023/09/06 05:25:00;;;;;;;;;25.00;22.00;;;;;18.34;100.00;99588.03;6267957;27;97153;-66
2023/09/06 05:28:06;;;;;;;;;21.40;20.40;;;;;18.52;100.00;99593.16;6253033;27;97726;-66
2023/09/06 05:31:10;;;;;;;;;21.00;20.50;;;;;18.68;100.00;99595.00;6269745;27;96526;-66
2023/09/06 05:34:16;;;;;;;;;18.60;18.60;;;;;18.71;100.00;99596.41;6270156;27;96350;-66
2023/09/06 05:37:20;;;;;;;;;23.00;22.00;;;;;18.75;100.00;99571.03;6247405;27;97180;-66
2023/09/06 05:40:26;;;;;;;;;18.00;17.40;;;;;18.98;100.00;99584.38;6269407;27;97338;-66
2023/09/06 05:43:33;;;;;;;;;26.40;25.40;;;;;18.99;100.00;99586.03;6241728;27;97089;-66
2023/09/06 05:46:38;;;;;;;;;33.40;29.40;;;;;18.75;100.00;99543.72;6242807;27;96677;-66
2023/09/06 05:49:44;;;;;;;;;25.60;25.00;;;;;19.25;100.00;99599.91;6244167;27;96695;-66
2023/09/06 05:52:47;;;;;;;;;31.00;26.00;;;;;19.46;100.00;99601.72;6244026;27;97008;-66
2023/09/06 05:55:51;;;;;;;;;28.60;26.60;;;;;19.69;100.00;99597.81;6244770;27;96430;-66
2023/09/06 05:58:54;;;;;;;;;28.40;26.00;;;;;19.92;100.00;99607.50;6260985;27;96252;-66
2023/09/06 06:01:59;;;;;;;;;25.20;23.20;;;;;20.15;100.00;99607.09;6227023;27;96771;-66
2023/09/06 06:05:02;;;;;;;;;25.00;23.00;;;;;20.38;100.00;99598.44;6244095;27;96677;-66
2023/09/06 06:08:05;;;;;;;;;23.60;22.60;;;;;20.67;100.00;99605.09;6244464;27;96324;-66
2023/09/06 06:11:09;;;;;;;;;23.00;20.00;;;;;20.90;100.00;99603.81;6262636;27;97149;-66
2023/09/06 06:14:12;;;;;;;;;24.60;23.20;;;;;21.17;100.00;99612.63;6243491;27;97185;-66
2023/09/06 06:17:17;;;;;;;;;23.00;21.00;;;;;21.36;100.00;99595.63;6260363;27;97529;-66
2023/09/06 06:20:21;;;;;;;;;22.20;21.20;;;;;21.65;100.00;99613.16;6241643;27;96865;-65
2023/09/06 06:23:36;;;;;;;;;23.00;23.00;;;;;21.91;100.00;99611.19;6241141;27;96612;-66
2023/09/06 06:26:39;;;;;;;;;20.00;18.50;;;;;22.14;100.00;99616.09;6257036;27;97134;-65
2023/09/06 06:29:43;;;;;;;;;21.20;19.60;;;;;22.38;100.00;99611.59;6259200;27;97564;-66
2023/09/06 06:32:47;;;;;;;;;19.00;17.60;;;;;22.69;100.00;99614.22;6259037;27;96570;-66
2023/09/06 06:35:51;;;;;;;;;21.60;19.60;;;;;22.99;100.00;99614.06;6241141;27;99308;-66
2023/09/06 06:38:54;;;;;;;;;19.60;19.00;;;;;23.21;100.00;99614.44;6287527;27;96391;-66
2023/09/06 06:41:57;;;;;;;;;17.20;15.20;;;;;23.50;100.00;99616.47;6287777;27;96447;-66
2023/09/06 06:45:09;;;;;;;;;20.00;18.00;;;;;23.63;100.00;99602.84;6269404;27;97525;-66
2023/09/06 06:48:14;;;;;;;;;19.60;17.60;;;;;23.93;100.00;99615.50;6269146;27;96466;-66
2023/09/06 06:51:17;;;;;;;;;17.00;15.00;;;;;24.22;100.00;99623.75;6268686;27;96819;-66
2023/09/06 06:54:21;;;;;;;;;15.50;15.00;;;;;24.47;100.00;99617.91;6252069;27;99432;-66
2023/09/06 06:57:24;;;;;;;;;15.00;14.60;;;;;24.68;100.00;99615.69;6268458;27;98496;-66
2023/09/06 07:00:31;;;;;;;;;13.20;11.20;;;;;24.87;100.00;99619.34;6268486;27;96533;-66
2023/09/06 07:03:38;;;;;;;;;14.00;13.00;;;;;24.94;100.00;99617.00;6287125;27;96564;-66
2023/09/06 07:06:43;;;;;;;;;17.40;16.00;;;;;25.00;100.00;99623.28;6287476;27;96402;-66
2023/09/06 07:09:46;;;;;;;;;22.00;21.20;;;;;25.02;100.00;99619.09;6287127;27;96906;-67
2023/09/06 07:12:50;;;;;;;;;20.00;18.00;;;;;25.09;100.00;99621.47;6286967;27;97225;-66
2023/09/06 07:15:53;;;;;;;;;20.00;17.00;;;;;25.06;100.00;99629.53;6287301;27;96275;-66
2023/09/06 07:18:58;;;;;;;;;16.00;16.00;;;;;25.07;100.00;99628.44;6287003;27;96749;-67
2023/09/06 07:22:03;;;;;;;;;17.60;15.60;;;;;25.23;100.00;99624.28;6269422;27;97013;-66
2023/09/06 07:25:08;;;;;;;;;15.40;14.00;;;;;25.45;100.00;99627.25;6268434;27;96973;-66
2023/09/06 07:28:11;;;;;;;;;16.00;15.00;;;;;25.70;100.00;99632.38;6251556;27;96852;-67
2023/09/06 07:31:15;;;;;;;;;13.60;12.00;;;;;25.96;100.00;99638.25;6268258;27;96898;-66
2023/09/06 07:34:20;;;;;;;;;17.00;14.20;;;;;26.15;100.00;99633.47;6268231;27;96731;-66
2023/09/06 07:37:23;;;;;;;;;13.67;12.00;;;;;26.24;100.00;99633.63;6268595;27;97854;-67
2023/09/06 07:40:27;;;;;;;;;13.20;13.00;;;;;26.52;100.00;99635.25;6287051;27;96377;-66
2023/09/06 07:43:31;;;;;;;;;13.00;11.00;;;;;26.88;100.00;99631.75;6267881;27;98595;-66
2023/09/06 07:46:34;;;;;;;;;15.40;11.40;;;;;27.13;100.00;99625.59;6268181;27;96284;-67
2023/09/06 07:49:39;;;;;;;;;13.33;12.00;;;;;27.46;100.00;99635.34;6287040;27;96927;-67
2023/09/06 07:52:42;;;;;;;;;14.00;13.50;;;;;27.83;100.00;99628.59;6286191;27;96349;-66
2023/09/06 07:55:46;;;;;;;;;11.60;11.00;;;;;28.21;100.00;99633.69;6268130;27;96466;-67
2023/09/06 07:58:49;;;;;;;;;16.25;15.25;;;;;28.35;100.00;99637.16;6267807;27;97104;-66
2023/09/06 08:01:53;;;;;;;;;15.00;15.00;;;;;28.65;100.00;99633.50;6267406;27;97834;-66
2023/09/06 08:04:58;;;;;;;;;12.25;10.25;;;;;28.96;100.00;99630.66;6250972;27;97887;-66
2023/09/06 08:08:02;;;;;;;;;12.00;12.00;;;;;29.29;100.00;99629.03;6250802;27;97129;-66
2023/09/06 08:11:05;;;;;;;;;14.20;13.00;;;;;29.64;100.00;99629.00;6286484;27;96829;-67
2023/09/06 08:14:09;;;;;;;;;14.00;13.00;;;;;29.96;100.00;99622.91;6270434;27;97798;-66
2023/09/06 08:17:12;;;;;;;;;11.00;11.00;;;;;30.27;100.00;99619.03;6268519;27;97118;-66
2023/09/06 08:20:18;;;;;;;;;11.00;11.00;;;;;30.64;100.00;99618.22;6287269;27;96516;-67
2023/09/06 08:23:21;;;;;;;;;10.00;9.00;;;;;30.96;100.00;99616.66;6251274;27;96776;-66
2023/09/06 08:26:24;;;;;;;;;10.80;9.80;;;;;31.07;97.39;99623.50;6251815;27;98587;-67
2023/09/06 08:29:27;;;;;;;;;11.50;10.50;;;;;31.25;100.00;99621.38;6251301;27;96733;-67
2023/09/06 08:32:30;;;;;;;;;9.00;9.00;;;;;31.46;98.02;99621.38;6250776;27;96797;-67
2023/09/06 08:35:36;;;;;;;;;10.00;10.00;;;;;31.77;97.04;99616.94;6269778;27;97637;-67
2023/09/06 08:38:40;;;;;;;;;10.00;9.60;;;;;31.98;95.30;99604.91;6263130;27;98431;-67
2023/09/06 08:41:48;;;;;;;;;10.00;9.20;;;;;32.47;94.58;99628.94;6264684;27;96951;-67
2023/09/06 08:44:53;;;;;;;;;10.00;10.00;;;;;32.77;89.26;99628.72;6245681;27;96682;-67
2023/09/06 08:47:57;;;;;;;;;11.00;10.00;;;;;33.00;88.90;99630.63;6246130;27;96311;-67
2023/09/06 08:51:05;;;;;;;;;9.20;9.00;;;;;33.25;90.05;99622.22;6228854;27;96675;-68
2023/09/06 08:54:09;;;;;;;;;9.40;9.00;;;;;33.43;86.08;99627.16;6245797;27;99597;-67
2023/09/06 08:57:13;;;;;;;;;9.40;9.00;;;;;33.45;81.64;99624.00;6245600;27;96932;-67
2023/09/06 09:00:17;;;;;;;;;8.20;8.00;;;;;33.43;87.34;99615.97;6262781;27;96474;-67
2023/09/06 09:03:20;;;;;;;;;9.00;8.00;;;;;33.72;87.39;99612.00;6245664;27;96815;-67
2023/09/06 09:06:26;;;;;;;;;7.00;7.00;;;;;34.00;83.08;99617.56;6264373;27;96286;-67
2023/09/06 09:09:29;;;;;;;;;7.60;7.00;;;;;34.05;82.39;99616.47;6245670;27;96847;-67
2023/09/06 09:12:32;;;;;;;;;8.00;7.00;;;;;34.40;85.29;99622.19;6264262;27;96550;-68
2023/09/06 09:15:35;;;;;;;;;8.75;8.00;;;;;34.64;78.36;99620.00;6263143;27;96433;-67
2023/09/06 09:18:40;;;;;;;;;8.00;8.00;;;;;34.75;78.90;99620.25;6245230;27;98444;-67
2023/09/06 09:21:45;;;;;;;;;9.00;8.00;;;;;34.85;78.28;99619.69;6264223;27;96506;-67
2023/09/06 09:24:48;;;;;;;;;8.00;7.00;;;;;34.97;75.15;99619.56;6245412;27;96484;-67
2023/09/06 09:27:55;;;;;;;;;9.00;8.20;;;;;35.07;77.50;99620.97;6245687;27;98370;-67
2023/09/06 09:30:59;;;;;;;;;9.75;9.50;;;;;35.37;74.99;99622.06;6228426;27;96699;-67
2023/09/06 09:34:03;;;;;;;;;9.00;9.00;;;;;35.54;70.75;99620.78;6263868;27;97146;-67
2023/09/06 09:37:08;;;;;;;;;7.60;7.00;;;;;35.59;71.95;99615.69;6263853;27;96379;-67
2023/09/06 09:40:19;;;;;;;;;8.00;8.00;;;;;35.81;71.83;99619.75;6245796;27;96639;-67
2023/09/06 09:43:22;;;;;;;;;9.40;8.00;;;;;35.99;63.07;99615.28;6263997;27;96393;-67
2023/09/06 09:46:28;;;;;;;;;9.00;8.40;;;;;36.09;66.67;99616.63;6245123;27;98575;-67
2023/09/06 09:49:33;;;;;;;;;10.75;9.00;;;;;36.30;66.27;99627.47;6261647;27;96815;-67
2023/09/06 09:52:43;;;;;;;;;7.00;7.00;;;;;36.58;65.22;99624.28;6266610;27;97660;-67
2023/09/06 09:55:52;;;;;;;;;8.25;8.00;;;;;36.62;50.81;99619.56;6261678;27;96593;-67
2023/09/06 09:58:57;;;;;;;;;8.00;6.80;;;;;36.41;50.42;99618.00;6278556;27;96917;-67
2023/09/06 10:02:00;;;;;;;;;7.40;6.80;;;;;35.90;58.88;99609.09;6288405;27;96899;-67
2023/09/06 10:05:08;;;;;;;;;8.00;8.00;;;;;36.18;60.08;99617.22;6269978;27;96484;-67
2023/09/06 10:08:14;;;;;;;;;11.60;10.60;;;;;36.19;60.62;99621.66;6288639;27;96705;-67
2023/09/06 10:11:19;;;;;;;;;5.00;5.00;;;;;36.10;49.13;99625.88;6269333;27;98488;-67
2023/09/06 10:14:25;;;;;;;;;9.00;8.00;;;;;35.54;46.63;99620.78;6288053;27;97580;-67
2023/09/06 10:17:29;;;;;;;;;7.00;6.40;;;;;34.99;50.04;99611.59;6278604;27;96519;-67
2023/09/06 10:20:34;;;;;;;;;6.75;6.50;;;;;34.69;50.22;99618.94;6267111;27;96522;-67
2023/09/06 10:23:43;;;;;;;;;6.00;6.00;;;;;34.87;61.00;99608.94;6251239;27;96656;-67
2023/09/06 10:26:48;;;;;;;;;6.00;6.00;;;;;34.72;49.83;99610.59;6286629;27;97633;-67
2023/09/06 10:29:54;;;;;;;;;6.00;5.00;;;;;33.90;53.19;99610.53;6267433;27;96824;-67
2023/09/06 10:33:08;;;;;;;;;8.40;7.40;;;;;34.51;60.04;99614.84;6250359;27;96813;-68
2023/09/06 10:36:13;;;;;;;;;5.00;4.20;;;;;35.01;53.64;99614.84;6250872;27;97682;-67
2023/09/06 10:39:21;;;;;;;;;6.00;6.00;;;;;35.62;57.47;99600.94;6269056;27;96677;-68
2023/09/06 10:42:24;;;;;;;;;6.20;5.60;;;;;36.08;53.88;99603.78;6286451;27;96633;-68
2023/09/06 10:45:27;;;;;;;;;5.25;5.00;;;;;36.58;52.19;99601.81;6287661;27;97546;-68
2023/09/06 10:48:30;;;;;;;;;8.00;7.00;;;;;36.46;44.00;99608.44;6269604;27;97588;-68
2023/09/06 10:51:34;;;;;;;;;8.00;8.00;;;;;36.30;43.88;99603.00;6268784;27;97028;-67
2023/09/06 10:54:43;;;;;;;;;4.00;3.60;;;;;36.07;52.80;99604.19;6287453;27;96302;-67
2023/09/06 10:57:52;;;;;;;;;6.00;6.00;;;;;36.16;46.61;99604.75;6287143;27;96236;-68
2023/09/06 11:01:14;;;;;;;;;6.00;6.00;;;;;35.64;46.79;99597.75;6287480;27;96912;-67
2023/09/06 11:04:26;;;;;;;;;6.00;6.00;;;;;35.75;48.68;99603.59;6251851;27;98601;-68
2023/09/06 11:07:38;;;;;;;;;7.00;7.00;;;;;36.06;55.18;99600.56;6268384;27;97442;-67
2023/09/06 11:10:59;;;;;;;;;5.00;5.00;;;;;36.18;48.34;99600.38;6268983;27;96573;-67
2023/09/06 11:14:03;;;;;;;;;6.00;5.25;;;;;36.48;44.43;99592.84;6276730;27;96537;-68
2023/09/06 11:17:07;;;;;;;;;6.00;6.00;;;;;36.65;48.23;99587.94;6254833;27;98119;-67
2023/09/06 11:20:13;;;;;;;;;8.80;8.00;;;;;36.97;49.65;99591.16;6272790;27;97258;-67
2023/09/06 11:23:16;;;;;;;;;7.00;6.00;;;;;37.01;45.55;99589.22;6272985;27;96721;-67
2023/09/06 11:26:21;;;;;;;;;6.00;6.00;;;;;37.07;44.60;99590.50;6245597;27;99764;-67
2023/09/06 11:29:27;;;;;;;;;9.00;8.00;;;;;36.83;43.33;99586.16;6283451;27;97075;-67
2023/09/06 11:32:32;;;;;;;;;5.25;5.25;;;;;36.54;41.98;99584.91;6284190;27;96519;-67
2023/09/06 11:35:39;;;;;;;;;6.00;6.00;;;;;36.42;48.15;99573.88;6267276;27;96887;-68
2023/09/06 11:38:44;;;;;;;;;5.80;5.00;;;;;36.10;46.03;99583.78;6286937;27;96972;-67
2023/09/06 11:41:50;;;;;;;;;7.00;6.00;;;;;36.24;46.84;99579.22;6268837;27;96914;-67
2023/09/06 11:44:55;;;;;;;;;8.60;7.00;;;;;36.59;46.79;99583.78;6287028;27;97178;-67
2023/09/06 11:48:05;;;;;;;;;6.40;6.40;;;;;36.89;48.72;99582.66;6271804;27;96409;-67
2023/09/06 11:51:11;;;;;;;;;7.00;7.00;;;;;37.15;42.32;99581.00;6272052;27;97262;-68
2023/09/06 11:54:15;;;;;;;;;7.00;6.00;;;;;37.01;41.83;99580.78;6255494;27;97148;-68
2023/09/06 11:57:23;;;;;;;;;7.00;7.00;;;;;37.04;43.75;99582.84;6290986;27;96244;-68
2023/09/06 12:00:38;;;;;;;;;6.00;5.20;;;;;37.16;42.78;99588.25;6273109;27;96439;-68
2023/09/06 12:03:47;;;;;;;;;6.25;5.25;;;;;36.75;42.96;99576.03;6290946;27;97571;-68
2023/09/06 12:06:51;;;;;;;;;6.80;5.80;;;;;36.75;43.40;99582.44;6291087;27;97537;-68
2023/09/06 12:09:57;;;;;;;;;7.20;6.80;;;;;36.75;42.02;99576.81;6271886;27;97209;-67
2023/09/06 12:13:06;;;;;;;;;6.00;5.00;;;;;36.71;41.46;99572.34;6272420;27;96787;-67
2023/09/06 12:16:11;;;;;;;;;5.00;5.00;;;;;36.64;43.84;99575.88;6270018;27;98438;-67
2023/09/06 12:19:16;;;;;;;;;7.00;6.00;;;;;36.58;51.28;99568.13;6290264;27;96538;-67
2023/09/06 12:22:19;;;;;;;;;6.75;6.75;;;;;36.75;50.12;99564.78;6287413;27;96502;-67
2023/09/06 12:25:23;;;;;;;;;8.00;8.00;;;;;36.79;44.20;99565.66;6268581;27;97238;-67
2023/09/06 12:28:29;;;;;;;;;7.00;7.00;;;;;36.40;42.88;99560.25;6261907;27;97357;-67
2023/09/06 12:31:32;;;;;;;;;6.00;6.00;;;;;36.01;40.99;99559.59;6259582;27;96971;-67
2023/09/06 12:34:35;;;;;;;;;8.40;7.60;;;;;35.97;47.42;99566.31;6226193;27;99487;-67
2023/09/06 12:37:40;;;;;;;;;9.40;8.00;;;;;36.25;48.55;99560.41;6245941;27;98684;-68
2023/09/06 12:40:43;;;;;;;;;5.20;5.20;;;;;36.38;41.50;99561.78;6264689;27;96434;-68
2023/09/06 12:43:48;;;;;;;;;8.00;7.00;;;;;36.40;42.85;99554.63;6245780;27;97905;-67
2023/09/06 12:46:51;;;;;;;;;8.20;7.00;;;;;36.11;40.72;99555.34;6264069;27;97559;-67
2023/09/06 12:49:55;;;;;;;;;6.00;5.60;;;;;36.12;47.13;99544.91;6260058;27;98463;-69
2023/09/06 12:52:58;;;;;;;;;7.00;7.00;;;;;36.21;42.77;99545.50;6281942;27;96421;-67
2023/09/06 12:56:02;;;;;;;;;7.00;6.25;;;;;36.12;41.37;99542.13;6263961;27;96673;-68
2023/09/06 12:59:07;;;;;;;;;4.50;4.50;;;;;36.01;44.35;99536.31;6263964;27;96499;-68
2023/09/06 13:02:10;;;;;;;;;6.25;6.00;;;;;35.83;45.09;99538.81;6246223;27;97607;-67
2023/09/06 13:05:19;;;;;;;;;5.50;5.50;;;;;35.87;49.30;99545.28;6264043;27;96540;-68
2023/09/06 13:08:23;;;;;;;;;6.00;5.00;;;;;35.92;45.24;99527.34;6264757;27;97508;-68
2023/09/06 13:11:26;;;;;;;;;6.00;6.00;;;;;35.93;44.55;99532.56;6264599;27;97104;-67
2023/09/06 13:14:31;;;;;;;;;5.00;5.00;;;;;35.73;39.07;99528.19;6264782;27;96396;-68
2023/09/06 13:17:34;;;;;;;;;4.60;4.00;;;;;35.32;38.07;99527.03;6264285;27;96507;-68
2023/09/06 13:20:38;;;;;;;;;6.00;5.00;;;;;35.16;39.53;99529.91;6246493;27;96952;-67
2023/09/06 13:23:41;;;;;;;;;5.00;5.00;;;;;35.05;47.39;99526.06;6245625;27;96753;-67
2023/09/06 13:26:46;;;;;;;;;6.00;5.00;;;;;35.05;46.82;99522.44;6245338;27;97374;-67
2023/09/06 13:29:55;;;;;;;;;5.60;4.80;;;;;35.09;45.76;99517.75;6262386;27;99773;-67
2023/09/06 13:32:58;;;;;;;;;5.00;5.00;;;;;34.78;38.25;99515.88;6263698;27;97253;-68
2023/09/06 13:36:02;;;;;;;;;6.00;6.00;;;;;34.67;41.27;99515.66;6259966;27;97490;-67
2023/09/06 13:39:07;;;;;;;;;4.25;4.00;;;;;34.68;47.58;99510.88;6270427;27;96646;-68
2023/09/06 13:42:11;;;;;;;;;6.00;6.00;;;;;34.86;51.31;99509.25;6265085;27;96947;-68
2023/09/06 13:45:15;;;;;;;;;7.00;6.00;;;;;34.90;47.85;99501.72;6263957;27;97066;-67
2023/09/06 13:48:19;;;;;;;;;6.00;5.75;;;;;34.96;49.09;99505.84;6263861;27;96361;-68
2023/09/06 13:51:22;;;;;;;;;5.00;5.00;;;;;35.04;47.68;99498.41;6273863;27;96853;-67
2023/09/06 13:54:26;;;;;;;;;6.40;6.40;;;;;35.05;48.08;99502.81;6277723;27;96685;-68
2023/09/06 13:57:29;;;;;;;;;5.00;5.00;;;;;34.79;41.61;99492.31;6261367;27;96636;-67
2023/09/06 14:00:33;;;;;;;;;6.00;6.00;;;;;34.69;43.43;99484.50;6228042;27;96854;-67
2023/09/06 14:03:37;;;;;;;;;6.60;6.60;;;;;34.42;38.29;99486.25;6263083;27;96441;-68
2023/09/06 14:06:40;;;;;;;;;6.80;6.80;;;;;34.06;38.89;99489.41;6255811;27;97514;-67
2023/09/06 14:09:43;;;;;;;;;6.40;6.20;;;;;33.57;38.35;99466.56;6256036;27;97220;-68
2023/09/06 14:12:46;;;;;;;;;7.60;6.60;;;;;33.60;43.01;99489.03;6274909;27;96931;-67